KAOH/AOH METAR and TAF weather

Enter ICAO airport designator
Station Type Date Time Source
KAOH METAR 2018/07/20 13:53 UTC NOAA

KAOH 201353Z AUTO 17008KT 10SM -RA BKN070 OVC110 19/19 A2990 RMK AO2 SLP120 P0001 T01940189 $


Station Type Date Time Source
KAOH Decoded METAR 2018/07/20 13:53 UTC NOAA

LIMA ALLEN COUNTY AIRPORT, OH, United States (KAOH) 40-42N 84-01W 296M
Jul 20, 2018 - 09:53 AM EDT / 2018.07.20 1353 UTC
Wind: from the S (170 degrees) at 9 MPH (8 KT):0
Visibility: 10 mile(s):0
Sky conditions: overcast
Weather: light rain
Precipitation last hour: 0.01 inches
Temperature: 66.9 F (19.4 C)
Dew Point: 66.0 F (18.9 C)
Relative Humidity: 96%
Pressure (altimeter): 29.9 in. Hg (1012 hPa)
ob: KAOH 201353Z AUTO 17008KT 10SM -RA BKN070 OVC110 19/19 A2990 RMK AO2 SLP120 P0001 T01940189
cycle: 14

Station Type Date Time Source
KAOH TAF UTC NOAA

Error!


Example: see airport list